Time;durP1;ratioP1;P1;durP2;ratioP2;P2;SDS_P1;SDS_P2;PMS_P1;PMS_P2;Temp;Humidity;BMP_temperature;BMP_pressure;BME280_temperature;BME280_humidity;BME280_pressure;Samples;Min_cycle;Max_cycle;Signal;HPM_P1;HPM_P2
2022/05/19 00:01:57;;;;;;;6.30;4.10;;;;;;;4.21;76.15;98396.04;110069;1250;68496;-64
2022/05/19 00:04:28;;;;;;;7.60;4.50;;;;;;;4.17;78.13;98400.66;109901;1250;59812;-64
2022/05/19 00:06:59;;;;;;;6.40;4.10;;;;;;;4.13;77.57;98400.10;109872;1250;59694;-64
2022/05/19 00:09:30;;;;;;;6.00;3.70;;;;;;;4.10;77.71;98405.72;109812;1250;71513;-63
2022/05/19 00:12:07;;;;;;;6.90;4.40;;;;;;;4.05;78.81;98406.36;109832;1249;68773;-67
2022/05/19 00:14:37;;;;;;;8.60;5.00;;;;;;;4.02;78.22;98407.16;109727;1250;69369;-65
2022/05/19 00:17:08;;;;;;;8.30;4.70;;;;;;;3.98;76.43;98409.02;109853;1250;59749;-66
2022/05/19 00:19:40;;;;;;;6.30;4.30;;;;;;;3.92;75.64;98412.14;110042;1250;59724;-66
2022/05/19 00:22:12;;;;;;;6.80;4.30;;;;;;;3.83;80.51;98407.73;109741;1250;70635;-64
2022/05/19 00:24:43;;;;;;;5.40;3.10;;;;;;;3.78;80.72;98404.09;110017;1250;67552;-66
2022/05/19 00:27:16;;;;;;;4.90;3.40;;;;;;;3.74;79.17;98403.35;109830;1250;67642;-64
2022/05/19 00:29:47;;;;;;;5.50;3.10;;;;;;;3.70;80.21;98404.48;109772;1251;59745;-65
2022/05/19 00:32:19;;;;;;;4.60;3.00;;;;;;;3.67;80.73;98407.52;110008;1250;59621;-66
2022/05/19 00:34:49;;;;;;;;;;;;;;;3.63;79.90;98408.33;110101;1247;71478;-65
2022/05/19 00:37:21;;;;;;;4.60;3.20;;;;;;;3.59;80.57;98402.41;110049;1250;69175;-64
2022/05/19 00:39:53;;;;;;;6.30;4.40;;;;;;;3.56;75.67;98407.13;110072;1250;69517;-65
2022/05/19 00:42:45;;;;;;;6.10;4.60;;;;;;;3.54;79.10;98411.69;110071;1250;59689;-65
2022/05/19 00:45:18;;;;;;;;;;;;;;;3.48;80.34;98415.80;110118;1250;59619;-66
2022/05/19 00:47:58;;;;;;;6.80;4.50;;;;;;;3.44;81.36;98416.98;110062;1250;71778;-65
2022/05/19 00:50:36;;;;;;;7.60;5.00;;;;;;;3.37;82.09;98416.30;110082;1249;68349;-64
2022/05/19 00:53:12;;;;;;;8.80;4.40;;;;;;;3.30;82.24;98414.77;110041;1250;68610;-67
2022/05/19 00:55:46;;;;;;;5.30;4.20;;;;;;;3.24;81.86;98414.94;110091;1250;59699;-66
2022/05/19 00:58:26;;;;;;;8.50;4.40;;;;;;;3.22;82.52;98417.73;110092;1250;59672;-66
2022/05/19 01:00:58;;;;;;;3.90;3.50;;;;;;;3.24;83.47;98422.34;110049;1250;71020;-64
2022/05/19 01:03:33;;;;;;;5.20;3.80;;;;;;;3.21;82.78;98425.86;110131;1250;69828;-67
2022/05/19 01:06:12;;;;;;;6.70;3.60;;;;;;;3.18;82.86;98426.81;109912;1250;69256;-66
2022/05/19 01:08:51;;;;;;;7.10;3.80;;;;;;;3.16;82.46;98425.14;109846;1250;59726;-63
2022/05/19 01:11:22;;;;;;;7.60;5.70;;;;;;;3.11;80.31;98420.96;110072;1250;59639;-64
2022/05/19 01:13:54;;;;;;;7.10;4.70;;;;;;;3.04;78.52;98421.15;110003;1250;71470;-63
2022/05/19 01:16:26;;;;;;;6.00;4.10;;;;;;;2.96;80.51;98422.56;110196;1249;67780;-64
2022/05/19 01:18:57;;;;;;;6.90;4.70;;;;;;;2.92;84.12;98428.54;110029;1248;69276;-64
2022/05/19 01:21:30;;;;;;;5.50;4.40;;;;;;;2.89;85.16;98427.59;109877;1250;59670;-65
2022/05/19 01:24:11;;;;;;;6.60;5.20;;;;;;;2.87;84.65;98431.09;109865;1250;59619;-65
2022/05/19 01:26:57;;;;;;;6.60;4.30;;;;;;;2.84;81.55;98433.21;110046;1250;71339;-65
2022/05/19 01:29:29;;;;;;;6.00;4.60;;;;;;;2.81;81.61;98442.73;110064;1250;68576;-65
2022/05/19 01:32:02;;;;;;;8.50;4.40;;;;;;;2.82;84.71;98447.23;110051;1250;68511;-65
2022/05/19 01:34:34;;;;;;;6.10;3.90;;;;;;;2.80;83.75;98452.42;109902;1250;59734;-65
2022/05/19 01:37:05;;;;;;;6.90;3.90;;;;;;;2.77;82.96;98458.34;109913;1250;60065;-64
2022/05/19 01:39:47;;;;;;;5.40;4.30;;;;;;;2.75;84.67;98460.82;109927;1250;71353;-65
2022/05/19 01:42:32;;;;;;;7.50;5.10;;;;;;;2.74;86.35;98464.10;110042;1250;68675;-66
2022/05/19 01:45:31;;;;;;;5.00;3.60;;;;;;;2.75;86.60;98460.14;110138;1250;69268;-65
2022/05/19 01:48:04;;;;;;;5.50;3.60;;;;;;;2.72;85.15;98460.88;110192;1250;59732;-67
2022/05/19 01:50:58;;;;;;;3.90;2.80;;;;;;;2.69;83.04;98460.78;110028;1250;59713;-64
2022/05/19 01:53:37;;;;;;;5.10;4.00;;;;;;;2.64;79.61;98462.98;110070;1250;71267;-63
2022/05/19 01:56:41;;;;;;;6.50;4.00;;;;;;;2.62;83.13;98466.99;110047;1248;67770;-64
2022/05/19 01:59:18;;;;;;;6.10;3.90;;;;;;;2.57;85.27;98463.30;110059;1250;68637;-64
2022/05/19 02:02:12;;;;;;;5.80;4.00;;;;;;;2.53;84.20;98464.77;110029;1250;59733;-64
2022/05/19 02:04:49;;;;;;;5.60;4.30;;;;;;;2.52;85.50;98461.52;110084;1250;59747;-67
2022/05/19 02:07:22;;;;;;;5.20;4.10;;;;;;;2.49;86.10;98459.88;109808;1250;71554;-67
2022/05/19 02:10:00;;;;;;;4.80;3.60;;;;;;;2.45;86.02;98457.91;109686;1250;68623;-65
2022/05/19 02:12:33;;;;;;;4.80;3.90;;;;;;;2.40;86.12;98467.68;110066;1250;68646;-65
2022/05/19 02:15:17;;;;;;;9.00;5.30;;;;;;;2.35;86.33;98467.96;109972;1250;59736;-66
2022/05/19 02:17:50;;;;;;;7.30;4.50;;;;;;;2.30;86.61;98468.23;109983;1250;59710;-66
2022/05/19 02:20:25;;;;;;;8.00;5.10;;;;;;;2.26;85.17;98470.41;109804;1250;71345;-65
2022/05/19 02:22:57;;;;;;;8.10;4.90;;;;;;;2.24;86.40;98468.91;109948;1250;68613;-64
2022/05/19 02:25:39;;;;;;;8.00;5.10;;;;;;;2.23;86.09;98469.61;109796;1251;69389;-66
2022/05/19 02:28:32;;;;;;;6.30;4.70;;;;;;;2.23;84.49;98469.29;110037;1250;59674;-65
2022/05/19 02:31:03;;;;;;;6.60;3.30;;;;;;;2.22;82.86;98469.13;109967;1250;59722;-64
2022/05/19 02:33:35;;;;;;;9.20;5.80;;;;;;;2.21;80.87;98472.92;110255;1250;70052;-67
2022/05/19 02:36:09;;;;;;;6.30;4.10;;;;;;;2.21;81.38;98476.54;110205;1250;68443;-66
2022/05/19 02:38:41;;;;;;;7.70;4.40;;;;;;;2.17;81.38;98487.13;110023;1250;68792;-64
2022/05/19 02:41:12;;;;;;;6.40;4.60;;;;;;;2.13;84.88;98491.00;110001;1250;59698;-64
2022/05/19 02:43:42;;;;;;;6.60;4.00;;;;;;;2.07;82.42;98487.50;110035;1250;59813;-64
2022/05/19 02:46:12;;;;;;;4.20;3.40;;;;;;;2.02;82.81;98489.52;110034;1250;71508;-65
2022/05/19 02:48:44;;;;;;;4.20;3.20;;;;;;;1.96;81.67;98492.20;109730;1250;67932;-64
2022/05/19 02:51:15;;;;;;;4.20;3.40;;;;;;;1.90;81.87;98499.38;109889;1250;69327;-65
2022/05/19 02:53:45;;;;;;;6.00;3.50;;;;;;;1.88;85.86;98497.71;109934;1250;59684;-64
2022/05/19 02:56:16;;;;;;;5.00;3.50;;;;;;;1.84;87.01;98497.43;110160;1249;59798;-65
2022/05/19 02:58:46;;;;;;;;;;;;;;;1.83;87.22;98492.66;110225;1250;71796;-64
2022/05/19 03:01:17;;;;;;;4.00;2.90;;;;;;;1.81;87.03;98494.94;110144;1250;68413;-64
2022/05/19 03:03:48;;;;;;;5.10;3.80;;;;;;;1.80;86.36;98496.48;110158;1250;69404;-64
2022/05/19 03:06:20;;;;;;;8.10;4.00;;;;;;;1.81;87.13;98497.17;110246;1250;59708;-64
2022/05/19 03:08:50;;;;;;;7.80;5.00;;;;;;;1.81;84.51;98499.39;110163;1250;59668;-64
2022/05/19 03:11:20;;;;;;;;;;;;;;;1.84;86.45;98501.58;109935;1250;71607;-64
2022/05/19 03:13:50;;;;;;;4.40;3.20;;;;;;;1.86;87.21;98498.78;110097;1250;68438;-65
2022/05/19 03:16:20;;;;;;;8.50;5.40;;;;;;;1.88;87.88;98499.78;110234;1250;68227;-65
2022/05/19 03:18:49;;;;;;;6.60;4.60;;;;;;;1.89;88.21;98503.52;109872;1250;59674;-64
2022/05/19 03:21:19;;;;;;;7.20;5.00;;;;;;;1.91;88.13;98507.96;109908;1250;59682;-63
2022/05/19 03:23:55;;;;;;;6.60;4.50;;;;;;;1.92;87.92;98509.14;110004;1250;70742;-66
2022/05/19 03:26:24;;;;;;;;;;;;;;;1.94;87.62;98512.70;110013;1250;68608;-64
2022/05/19 03:28:57;;;;;;;5.10;3.70;;;;;;;1.97;87.90;98512.97;110246;1250;70687;-66
2022/05/19 03:31:27;;;;;;;6.60;4.70;;;;;;;2.01;87.42;98516.17;110046;1250;59686;-64
2022/05/19 03:33:57;;;;;;;7.00;4.60;;;;;;;2.07;88.23;98512.09;109962;1250;59678;-64
2022/05/19 03:36:27;;;;;;;5.10;3.30;;;;;;;2.12;86.75;98513.20;109792;1250;70767;-67
2022/05/19 03:38:57;;;;;;;6.30;4.80;;;;;;;2.20;86.93;98515.59;109980;1250;67467;-65
2022/05/19 03:41:26;;;;;;;5.50;4.20;;;;;;;2.31;88.10;98519.84;110090;1250;69383;-63
2022/05/19 03:43:55;;;;;;;5.30;3.90;;;;;;;2.39;87.59;98519.30;110155;1250;59737;-64
2022/05/19 03:46:25;;;;;;;5.90;4.10;;;;;;;2.47;84.34;98517.59;110025;1250;60126;-64
2022/05/19 03:48:54;;;;;;;4.20;3.20;;;;;;;2.55;81.80;98512.91;110058;1250;71550;-65
2022/05/19 03:51:27;;;;;;;7.40;4.90;;;;;;;2.66;83.10;98524.54;109930;1250;67814;-64
2022/05/19 03:53:56;;;;;;;8.20;5.30;;;;;;;2.74;84.37;98535.90;109862;1250;69512;-67
2022/05/19 03:56:26;;;;;;;6.70;4.40;;;;;;;2.76;84.13;98540.99;109989;1250;59737;-65
2022/05/19 03:58:56;;;;;;;8.10;4.80;;;;;;;2.78;83.50;98542.02;109911;1250;59678;-64
2022/05/19 04:01:26;;;;;;;7.20;4.30;;;;;;;2.81;85.59;98550.52;109940;1249;70756;-66
2022/05/19 04:03:55;;;;;;;5.70;3.80;;;;;;;2.88;86.68;98549.84;110261;1250;68691;-64
2022/05/19 04:06:26;;;;;;;9.50;4.70;;;;;;;2.99;86.79;98548.02;109888;1248;68567;-64
2022/05/19 04:08:56;;;;;;;9.90;5.80;;;;;;;3.12;85.79;98547.54;109645;1251;59687;-65
2022/05/19 04:11:26;;;;;;;8.30;5.50;;;;;;;3.26;84.97;98546.84;109973;1248;59678;-67
2022/05/19 04:13:56;;;;;;;10.10;5.80;;;;;;;3.41;84.03;98546.30;109990;1251;71108;-64
2022/05/19 04:16:26;;;;;;;8.40;5.30;;;;;;;3.61;84.16;98550.60;109982;1250;67860;-65
2022/05/19 04:18:55;;;;;;;10.70;6.80;;;;;;;3.92;83.94;98550.44;109995;1250;68385;-64
2022/05/19 04:21:25;;;;;;;12.90;7.70;;;;;;;4.22;82.89;98549.78;109923;1250;59683;-64
2022/05/19 04:23:55;;;;;;;13.40;6.70;;;;;;;4.38;81.99;98553.93;109810;1250;59723;-64
2022/05/19 04:26:24;;;;;;;16.40;7.10;;;;;;;4.53;81.64;98557.98;109791;1251;71375;-65
2022/05/19 04:28:53;;;;;;;15.70;8.00;;;;;;;4.66;81.56;98558.27;110022;1251;67875;-64
2022/05/19 04:31:23;;;;;;;13.40;7.30;;;;;;;4.79;81.40;98562.36;109867;1250;69651;-65
2022/05/19 04:33:52;;;;;;;;;;;;;;;4.93;81.03;98564.52;110118;1250;59692;-65
2022/05/19 04:36:22;;;;;;;10.40;6.30;;;;;;;5.05;80.65;98566.21;110149;1249;59694;-66
2022/05/19 04:38:52;;;;;;;10.10;5.60;;;;;;;5.18;79.58;98566.48;109795;1251;71588;-64
2022/05/19 04:41:21;;;;;;;9.20;5.50;;;;;;;5.31;79.36;98573.48;109901;1250;68098;-64
2022/05/19 04:43:52;;;;;;;7.30;5.40;;;;;;;5.48;79.31;98575.86;110033;1250;69451;-65
2022/05/19 04:46:21;;;;;;;8.00;5.20;;;;;;;5.65;78.20;98578.38;110155;1250;59695;-66
2022/05/19 04:48:50;;;;;;;7.90;4.40;;;;;;;5.78;77.63;98575.00;110099;1250;59747;-65
2022/05/19 04:51:19;;;;;;;6.50;4.10;;;;;;;5.91;77.00;98576.27;110175;1250;70869;-64
2022/05/19 04:53:49;;;;;;;8.40;4.70;;;;;;;6.03;76.48;98575.67;109942;1250;68379;-65
2022/05/19 04:56:18;;;;;;;8.20;3.80;;;;;;;6.18;76.22;98570.47;110199;1250;69474;-65
2022/05/19 04:58:48;;;;;;;6.20;3.60;;;;;;;6.36;75.95;98571.72;110003;1250;59741;-64
2022/05/19 05:01:17;;;;;;;8.80;4.00;;;;;;;6.56;75.80;98576.85;110028;1248;59662;-66
2022/05/19 05:03:47;;;;;;;6.50;4.10;;;;;;;6.83;75.36;98579.80;110186;1250;71526;-63
2022/05/19 05:06:17;;;;;;;6.30;4.00;;;;;;;7.22;75.15;98582.06;109856;1251;68637;-64
2022/05/19 05:08:46;;;;;;;6.90;5.20;;;;;;;7.71;76.59;98577.74;110008;1250;69464;-63
2022/05/19 05:11:15;;;;;;;6.60;4.20;;;;;;;8.20;72.86;98580.30;110040;1250;59670;-66
2022/05/19 05:13:45;;;;;;;4.10;2.70;;;;;;;8.58;72.32;98580.36;109999;1250;59672;-63
2022/05/19 05:16:14;;;;;;;4.60;2.90;;;;;;;9.12;68.85;98574.48;109986;1251;71618;-64
2022/05/19 05:18:43;;;;;;;5.90;3.40;;;;;;;9.65;67.69;98568.70;109818;1251;67463;-65
2022/05/19 05:21:13;;;;;;;4.20;2.80;;;;;;;10.12;65.67;98573.82;110009;1250;69250;-64
2022/05/19 05:23:43;;;;;;;4.90;3.00;;;;;;;10.37;62.41;98574.10;110077;1250;59687;-65
2022/05/19 05:26:12;;;;;;;4.00;2.40;;;;;;;10.54;60.77;98575.94;110035;1250;59738;-65
2022/05/19 05:28:41;;;;;;;3.30;3.00;;;;;;;10.78;56.50;98577.42;110012;1248;70774;-73
2022/05/19 05:31:10;;;;;;;4.20;3.10;;;;;;;11.10;59.10;98578.45;110237;1250;67848;-65
2022/05/19 05:33:40;;;;;;;5.60;3.60;;;;;;;11.06;57.77;98582.83;109774;1250;70430;-66
2022/05/19 05:36:09;;;;;;;6.10;3.60;;;;;;;10.75;57.62;98583.19;109965;1250;59719;-66
2022/05/19 05:38:40;;;;;;;8.00;3.90;;;;;;;10.59;58.57;98583.85;110039;1249;59621;-66
2022/05/19 06:23:46;;;;;;;4.60;3.40;;;;;;;14.32;49.87;98582.95;106454;1286;609635;-69
2022/05/19 06:26:15;;;;;;;5.20;3.60;;;;;;;14.57;47.21;98583.96;109637;1249;391552;-73
2022/05/19 06:28:44;;;;;;;5.10;2.80;;;;;;;14.52;47.33;98585.90;110136;1250;58096;-73
2022/05/19 06:31:13;;;;;;;4.50;3.60;;;;;;;14.97;48.59;98586.52;110140;1248;68149;-66
2022/05/19 06:33:42;;;;;;;4.20;3.10;;;;;;;15.12;46.07;98588.08;110131;1249;68652;-72
2022/05/19 06:36:13;;;;;;;4.30;2.80;;;;;;;15.44;46.29;98582.19;110203;1249;69580;-71
2022/05/19 06:38:43;;;;;;;4.20;3.20;;;;;;;15.42;45.09;98583.41;110139;1249;57509;-72
2022/05/19 06:45:55;;;;;;;4.00;2.60;;;;;;;16.13;43.15;98577.42;110179;1248;68221;-72
2022/05/19 06:48:24;;;;;;;4.80;3.30;;;;;;;16.05;42.25;98576.44;110121;1250;67694;-69
2022/05/19 06:50:53;;;;;;;4.50;2.60;;;;;;;16.16;41.84;98574.30;109893;1250;69366;-71
2022/05/19 06:53:42;;;;;;;3.80;2.70;;;;;;;15.95;41.34;98568.55;110159;1248;58451;-76
2022/05/19 06:56:12;;;;;;;5.90;3.10;;;;;;;16.48;41.59;98570.10;110146;1249;58097;-69
2022/05/19 06:58:41;;;;;;;;;;;;;;;16.62;41.65;98569.67;110154;1249;69469;-75
2022/05/19 07:01:10;;;;;;;4.10;2.90;;;;;;;16.50;40.64;98570.13;110197;1249;68757;-75
2022/05/19 07:03:39;;;;;;;4.10;2.30;;;;;;;17.23;40.93;98567.66;110000;1250;69267;-77
2022/05/19 07:06:08;;;;;;;4.90;3.20;;;;;;;17.64;40.17;98568.09;110152;1250;58097;-76
2022/05/19 07:08:39;;;;;;;5.60;3.10;;;;;;;17.85;40.19;98569.26;110116;1248;58132;-72
2022/05/19 07:11:24;;;;;;;5.40;3.40;;;;;;;17.66;39.34;98575.71;110198;1249;69131;-72
2022/05/19 07:14:01;;;;;;;3.80;2.40;;;;;;;17.39;40.00;98577.56;110087;1249;68682;-75
2022/05/19 07:16:31;;;;;;;4.20;2.70;;;;;;;17.29;39.23;98571.70;110092;1250;68254;-70
2022/05/19 07:21:48;;;;;;;3.60;2.80;;;;;;;18.14;37.91;98563.57;110154;1248;58064;-72
2022/05/19 07:24:20;;;;;;;5.30;3.00;;;;;;;17.57;37.36;98561.29;110000;1250;68375;-76
2022/05/19 07:26:55;;;;;;;4.70;2.70;;;;;;;17.27;37.53;98566.27;109977;1250;68585;-72
2022/05/19 07:29:25;;;;;;;4.40;2.90;;;;;;;17.19;37.95;98561.27;109992;1250;68581;-73
2022/05/19 07:32:01;;;;;;;4.60;3.10;;;;;;;17.03;38.08;98558.34;109977;1250;58103;-71
2022/05/19 07:34:33;;;;;;;4.70;3.40;;;;;;;16.84;38.31;98563.52;109885;1250;58034;-76
2022/05/19 07:37:03;;;;;;;5.00;3.30;;;;;;;16.75;39.04;98562.17;109974;1250;69758;-70
2022/05/19 07:39:33;;;;;;;4.50;3.90;;;;;;;17.09;38.09;98561.92;109991;1250;67023;-77
2022/05/19 07:42:02;;;;;;;5.20;3.20;;;;;;;17.33;38.27;98554.83;109935;1250;67682;-70
2022/05/19 07:44:32;;;;;;;4.90;3.10;;;;;;;17.37;37.88;98558.52;109940;1250;58156;-73
2022/05/19 07:47:02;;;;;;;5.70;3.30;;;;;;;17.62;37.22;98556.29;109949;1248;58086;-75
2022/05/19 07:49:31;;;;;;;4.60;3.70;;;;;;;17.92;37.25;98553.59;110107;1250;69584;-72
2022/05/19 07:52:00;;;;;;;4.20;3.30;;;;;;;18.39;37.41;98558.93;110078;1249;68626;-72
2022/05/19 07:54:31;;;;;;;3.70;2.80;;;;;;;17.88;36.98;98553.79;110110;1250;69430;-67
2022/05/19 07:57:00;;;;;;;5.80;3.00;;;;;;;18.55;35.87;98554.54;109993;1250;58060;-73
2022/05/19 07:59:31;;;;;;;6.20;3.60;;;;;;;19.29;34.95;98551.39;109981;1250;58079;-70
2022/05/19 08:02:01;;;;;;;5.90;3.20;;;;;;;19.46;34.98;98547.46;109998;1249;69317;-74
2022/05/19 08:04:30;;;;;;;6.10;3.20;;;;;;;19.71;34.46;98553.30;109938;1250;67842;-70
2022/05/19 08:07:01;;;;;;;4.00;2.90;;;;;;;19.79;34.30;98556.69;109969;1250;68318;-75
2022/05/19 08:18:16;;;;;;;4.60;2.60;;;;;;;18.93;33.00;98556.13;110053;1249;66624;-75
2022/05/19 08:20:51;;;;;;;5.40;3.00;;;;;;;18.81;33.22;98557.19;110178;1249;69406;-74
2022/05/19 08:23:25;;;;;;;5.80;3.80;;;;;;;18.50;32.87;98558.02;110075;1248;58090;-76
2022/05/19 08:25:55;;;;;;;5.50;3.30;;;;;;;18.87;32.64;98551.23;110116;1250;58087;-74
2022/05/19 08:28:31;;;;;;;4.70;3.30;;;;;;;19.42;32.90;98543.31;110161;1250;69128;-76
2022/05/19 08:31:09;;;;;;;5.00;2.70;;;;;;;19.72;31.90;98542.35;110195;1248;68119;-69
2022/05/19 08:33:40;;;;;;;5.50;3.00;;;;;;;20.13;29.41;98541.27;109945;1250;69654;-72
2022/05/19 08:36:10;;;;;;;4.90;2.90;;;;;;;20.42;30.93;98537.15;110126;1247;58167;-69
2022/05/19 08:38:40;;;;;;;3.90;2.90;;;;;;;20.24;30.46;98541.85;110166;1248;58060;-74
2022/05/19 08:41:13;;;;;;;3.60;2.30;;;;;;;20.28;30.41;98539.21;110234;1247;69737;-74
2022/05/19 08:43:57;;;;;;;4.00;2.40;;;;;;;20.78;29.94;98542.19;110192;1247;68988;-72
2022/05/19 08:46:31;;;;;;;2.20;1.70;;;;;;;21.16;26.44;98532.79;109926;1250;68507;-75
2022/05/19 08:49:27;;;;;;;2.80;1.90;;;;;;;20.78;26.42;98534.71;110006;1247;58141;-73
2022/05/19 08:52:06;;;;;;;6.80;2.70;;;;;;;21.56;26.81;98539.33;110199;1247;58044;-74
2022/05/19 08:54:38;;;;;;;4.50;2.70;;;;;;;21.38;26.71;98543.80;110173;1247;68179;-76
2022/05/19 08:57:27;;;;;;;4.00;1.90;;;;;;;21.06;25.66;98545.29;110201;1247;67708;-74
2022/05/19 09:00:11;;;;;;;2.70;1.90;;;;;;;21.88;26.20;98538.78;110161;1247;69635;-74
2022/05/19 09:03:08;;;;;;;3.50;2.20;;;;;;;22.36;26.61;98538.95;110137;1247;58105;-75
2022/05/19 09:05:47;;;;;;;3.40;2.10;;;;;;;22.55;25.36;98534.59;110130;1247;58047;-74
2022/05/19 09:08:24;;;;;;;4.70;2.50;;;;;;;22.73;26.49;98529.92;110188;1247;69931;-74
2022/05/19 09:11:13;;;;;;;4.30;2.40;;;;;;;22.91;24.91;98532.55;110171;1247;68676;-75
2022/05/19 09:13:42;;;;;;;;;;;;;;;22.88;25.71;98535.69;110151;1247;69511;-77
2022/05/19 09:16:30;;;;;;;3.80;2.30;;;;;;;23.49;25.90;98538.17;110209;1247;58114;-73
2022/05/19 09:19:19;;;;;;;2.30;1.40;;;;;;;23.85;24.08;98534.52;110137;1247;58057;-76
2022/05/19 09:22:03;;;;;;;3.60;2.20;;;;;;;23.99;24.76;98532.00;110012;1248;69931;-74
2022/05/19 09:24:34;;;;;;;4.00;2.20;;;;;;;24.46;24.18;98537.55;109968;1248;67754;-77
2022/05/19 09:27:04;;;;;;;3.10;2.00;;;;;;;24.47;23.47;98529.55;110042;1247;69427;-71
2022/05/19 09:29:42;;;;;;;3.00;2.10;;;;;;;24.72;24.36;98529.40;110166;1248;58124;-72
2022/05/19 09:32:30;;;;;;;3.20;2.50;;;;;;;24.83;23.88;98530.23;110173;1247;58117;-73
2022/05/19 09:35:07;;;;;;;3.80;2.00;;;;;;;25.16;23.80;98524.06;110158;1247;70137;-71
2022/05/19 09:37:49;;;;;;;6.60;3.20;;;;;;;24.59;22.98;98522.64;110239;1246;67533;-74
2022/05/19 09:40:28;;;;;;;4.20;3.50;;;;;;;23.98;24.06;98515.21;110196;1247;68884;-76
2022/05/19 09:43:28;;;;;;;3.40;2.60;;;;;;;21.94;26.31;98505.64;110160;1246;58111;-74
2022/05/19 09:46:04;;;;;;;2.30;2.00;;;;;;;22.69;26.67;98509.94;110183;1247;58049;-76
2022/05/19 09:48:41;;;;;;;5.80;2.60;;;;;;;22.93;25.19;98508.07;110184;1247;69898;-73
2022/05/19 09:51:14;;;;;;;3.60;1.80;;;;;;;23.49;26.31;98502.95;110178;1247;67602;-74
2022/05/19 09:53:53;;;;;;;2.80;2.10;;;;;;;24.17;24.12;98503.18;110231;1247;68490;-75
2022/05/19 09:56:24;;;;;;;2.50;1.70;;;;;;;24.41;24.23;98500.48;110221;1247;58106;-70
2022/05/19 09:59:07;;;;;;;3.10;1.60;;;;;;;24.85;22.15;98502.05;109953;1250;58081;-69
2022/05/19 10:01:43;;;;;;;1.80;1.40;;;;;;;24.94;21.51;98502.52;109989;1248;68986;-71
2022/05/19 10:04:24;;;;;;;1.40;1.10;;;;;;;24.85;21.87;98504.36;110183;1248;68536;-71
2022/05/19 10:06:58;;;;;;;2.20;1.20;;;;;;;24.92;22.11;98503.02;110103;1247;68473;-73
2022/05/19 10:09:32;;;;;;;3.00;1.80;;;;;;;25.29;21.52;98504.13;109908;1247;58101;-71
2022/05/19 10:12:21;;;;;;;3.60;1.50;;;;;;;24.96;20.59;98501.28;109916;1247;58134;-72
2022/05/19 10:15:03;;;;;;;3.90;1.50;;;;;;;24.66;21.75;98497.47;110179;1247;69916;-70
2022/05/19 10:18:00;;;;;;;2.40;1.60;;;;;;;24.84;22.64;98497.02;110242;1247;68713;-74
2022/05/19 10:20:34;;;;;;;2.00;1.50;;;;;;;24.63;21.38;98488.91;110140;1247;68974;-70
2022/05/19 10:23:51;;;;;;;2.50;1.40;;;;;;;24.64;21.45;98486.01;109954;1250;58090;-74
2022/05/19 10:26:45;;;;;;;4.50;1.70;;;;;;;24.48;22.12;98484.92;109998;1250;58091;-71
2022/05/19 10:32:49;;;;;;;1.60;1.30;;;;;;;24.06;23.31;98480.95;109701;1250;69072;-71
2022/05/19 10:35:55;;;;;;;3.40;1.90;;;;;;;23.87;23.24;98477.05;110105;1247;68463;-74
2022/05/19 10:38:46;;;;;;;2.80;2.20;;;;;;;22.89;24.05;98476.25;110111;1248;58157;-74
2022/05/19 10:41:34;;;;;;;2.40;1.30;;;;;;;22.17;24.46;98478.64;110083;1247;58149;-72
2022/05/19 10:44:27;;;;;;;4.70;1.70;;;;;;;22.25;26.15;98477.49;110220;1247;68346;-74
2022/05/19 10:47:30;;;;;;;2.20;1.60;;;;;;;22.33;24.06;98470.19;110092;1249;67924;-70
2022/05/19 10:50:09;;;;;;;1.60;1.20;;;;;;;21.91;25.85;98464.98;110053;1249;69456;-72
2022/05/19 10:52:55;;;;;;;1.80;1.40;;;;;;;22.41;26.11;98466.53;109916;1250;58962;-73
2022/05/19 10:55:41;;;;;;;4.20;1.50;;;;;;;22.98;26.04;98462.83;110121;1249;58875;-73
2022/05/19 10:58:28;;;;;;;2.40;1.30;;;;;;;23.29;23.30;98457.67;110078;1249;69787;-75
2022/05/19 11:00:57;;;;;;;2.60;1.40;;;;;;;23.44;24.51;98451.13;110156;1249;66934;-75
2022/05/19 11:03:52;;;;;;;3.50;1.60;;;;;;;23.40;24.57;98451.99;110088;1250;69508;-75
2022/05/19 11:06:51;;;;;;;1.80;1.60;;;;;;;23.51;25.38;98450.17;110186;1247;58897;-75
2022/05/19 11:09:35;;;;;;;2.30;1.40;;;;;;;23.89;24.49;98452.15;110137;1249;58833;-75
2022/05/19 11:12:04;;;;;;;1.60;1.10;;;;;;;24.19;22.98;98446.27;110117;1248;70707;-75
2022/05/19 11:14:47;;;;;;;2.20;1.20;;;;;;;24.31;23.57;98443.02;110125;1247;68727;-73
2022/05/19 11:17:34;;;;;;;2.60;1.20;;;;;;;24.51;23.47;98448.10;110166;1247;69687;-78
2022/05/19 11:20:23;;;;;;;2.10;1.50;;;;;;;24.67;22.06;98438.56;110184;1247;58957;-74
2022/05/19 11:23:02;;;;;;;2.10;1.20;;;;;;;24.79;22.58;98436.52;110192;1247;58879;-73
2022/05/19 11:28:47;;;;;;;3.90;1.80;;;;;;;24.28;21.37;98436.70;110149;1247;68017;-72
2022/05/19 11:31:46;;;;;;;2.80;1.40;;;;;;;23.97;22.12;98432.37;110146;1247;69384;-75
2022/05/19 11:34:20;;;;;;;1.70;1.10;;;;;;;24.16;23.04;98429.70;109980;1247;58904;-74
2022/05/19 11:37:04;;;;;;;1.90;1.40;;;;;;;24.49;23.44;98426.01;110178;1247;58927;-75
2022/05/19 11:39:39;;;;;;;2.80;1.20;;;;;;;24.71;22.95;98422.59;110163;1247;70903;-74
2022/05/19 11:42:27;;;;;;;2.60;1.50;;;;;;;24.80;22.12;98419.76;110126;1248;67894;-72
2022/05/19 11:44:56;;;;;;;5.00;1.50;;;;;;;24.70;22.47;98420.80;110080;1247;69517;-73
2022/05/19 11:56:18;;;;;;;2.90;1.30;;;;;;;23.73;23.52;98414.20;109911;1247;67898;-75
2022/05/19 11:58:47;;;;;;;2.20;1.30;;;;;;;23.61;23.35;98411.13;109862;1247;68693;-76
2022/05/19 12:01:37;;;;;;;2.30;1.30;;;;;;;23.74;23.53;98405.38;110139;1247;58944;-70
2022/05/19 12:04:28;;;;;;;1.50;1.10;;;;;;;23.27;22.64;98396.84;109925;1248;58815;-73
2022/05/19 12:07:18;;;;;;;3.10;1.10;;;;;;;23.40;22.59;98395.39;110009;1249;70801;-73
2022/05/19 12:09:50;;;;;;;1.60;1.10;;;;;;;23.12;22.35;98388.95;110202;1247;68618;-74
2022/05/19 12:12:25;;;;;;;3.20;1.10;;;;;;;23.23;23.67;98382.98;110206;1247;69494;-73
2022/05/19 12:15:19;;;;;;;2.80;1.20;;;;;;;23.51;24.66;98385.88;110111;1247;58987;-75
2022/05/19 12:18:00;;;;;;;2.30;1.20;;;;;;;23.64;23.83;98385.54;110168;1249;58889;-71
2022/05/19 12:20:52;;;;;;;1.50;1.20;;;;;;;23.74;23.97;98382.09;110187;1247;70755;-73
2022/05/19 12:23:27;;;;;;;1.70;1.20;;;;;;;23.92;22.83;98381.19;110161;1247;67884;-71
2022/05/19 12:26:18;;;;;;;2.20;1.20;;;;;;;23.51;20.77;98379.48;110213;1247;71133;-74
2022/05/19 12:29:13;;;;;;;1.80;1.00;;;;;;;23.84;23.42;98373.38;110147;1247;58958;-74
2022/05/19 12:32:04;;;;;;;1.30;1.00;;;;;;;24.12;22.93;98374.79;110170;1247;58948;-76
2022/05/19 12:34:43;;;;;;;3.30;1.30;;;;;;;24.26;20.90;98373.02;109941;1247;71449;-73
2022/05/19 12:37:36;;;;;;;1.90;1.10;;;;;;;24.03;21.52;98372.60;110134;1247;67864;-73
2022/05/19 12:40:26;;;;;;;1.90;1.10;;;;;;;24.12;22.67;98374.96;109867;1247;69596;-75
2022/05/19 12:43:26;;;;;;;2.10;1.10;;;;;;;24.26;22.32;98375.93;110150;1247;58880;-72
2022/05/19 12:46:01;;;;;;;2.50;1.10;;;;;;;24.11;20.64;98376.50;109934;1249;58954;-74
2022/05/19 12:48:33;;;;;;;1.60;0.80;;;;;;;24.09;21.47;98373.41;110232;1245;70703;-76
2022/05/19 12:51:08;;;;;;;1.90;1.10;;;;;;;24.18;20.45;98374.16;110171;1247;68645;-74
2022/05/19 12:53:39;;;;;;;2.40;1.00;;;;;;;24.17;19.37;98372.80;110187;1248;67726;-74
2022/05/19 12:56:10;;;;;;;2.30;0.90;;;;;;;24.41;20.16;98368.13;110199;1247;58939;-75
2022/05/19 12:58:59;;;;;;;1.70;1.10;;;;;;;24.01;19.68;98370.38;110202;1247;58937;-71
2022/05/19 13:01:36;;;;;;;2.00;0.90;;;;;;;23.21;20.29;98363.04;110055;1248;71399;-74
2022/05/19 13:04:29;;;;;;;1.90;1.20;;;;;;;23.53;21.19;98366.69;110202;1247;68524;-75
2022/05/19 13:07:01;;;;;;;1.20;0.80;;;;;;;23.68;21.01;98368.26;110065;1248;70555;-75
2022/05/19 13:09:34;;;;;;;2.60;1.20;;;;;;;23.60;20.37;98365.02;110042;1248;59000;-76
2022/05/19 13:12:20;;;;;;;2.30;1.10;;;;;;;23.01;20.53;98359.08;110226;1247;58993;-75
2022/05/19 13:15:11;;;;;;;0.90;0.80;;;;;;;23.04;21.63;98358.34;109931;1248;70590;-79
2022/05/19 13:18:08;;;;;;;3.40;2.70;;;;;;;23.36;21.50;98361.63;110043;1250;68653;-78
2022/05/19 13:21:09;;;;;;;2.60;1.20;;;;;;;23.60;21.89;98361.78;109986;1248;69740;-78
2022/05/19 13:24:06;;;;;;;1.90;0.80;;;;;;;23.63;21.35;98357.71;109965;1250;58955;-79
2022/05/19 13:30:54;;;;;;;2.30;0.90;;;;;;;23.52;22.44;98345.08;109980;1250;70835;-73